Time;durP1;ratioP1;P1;durP2;ratioP2;P2;SDS_P1;SDS_P2;PMS_P1;PMS_P2;Temp;Humidity;BMP_temperature;BMP_pressure;BME280_temperature;BME280_humidity;BME280_pressure;Samples;Min_cycle;Max_cycle;Signal;HPM_P1;HPM_P2
2022/11/08 00:01:33;;;;;;;;;;;17.10;91.30;;;;;;5097079;28;19915;-43
2022/11/08 00:03:59;;;;;;;;;;;17.10;91.20;;;;;;5097083;28;19915;-43
2022/11/08 00:14:38;;;;;;;;;;;17.20;91.00;;;;;;5096982;28;19920;-43
2022/11/08 00:17:03;;;;;;;;;;;17.20;91.00;;;;;;5096563;28;19912;-42
2022/11/08 00:19:28;;;;;;;;;;;17.20;91.00;;;;;;5078837;28;19962;-41
2022/11/08 00:21:54;;;;;;;;;;;17.20;91.00;;;;;;5096804;28;19908;-42
2022/11/08 00:24:19;;;;;;;;;;;17.20;91.00;;;;;;5096566;28;19909;-41
2022/11/08 00:26:45;;;;;;;;;;;17.20;91.00;;;;;;5096859;28;19961;-41
2022/11/08 00:29:10;;;;;;;;;;;17.20;91.00;;;;;;5096722;28;20270;-42
2022/11/08 00:31:36;;;;;;;;;;;17.20;91.00;;;;;;5078278;28;19912;-41
2022/11/08 00:34:01;;;;;;;;;;;17.20;91.00;;;;;;5096545;28;19916;-42
2022/11/08 00:36:27;;;;;;;;;;;17.10;91.00;;;;;;5096294;28;19915;-43
2022/11/08 00:38:52;;;;;;;;;;;17.10;91.00;;;;;;5096533;28;19939;-41
2022/11/08 00:41:18;;;;;;;;;;;17.20;91.00;;;;;;5078463;28;19916;-42
2022/11/08 00:43:44;;;;;;;;;;;17.10;91.00;;;;;;5096436;28;19964;-43
2022/11/08 00:46:09;;;;;;;;;;;17.10;91.10;;;;;;5096145;28;19908;-43
2022/11/08 00:48:35;;;;;;;;;;;17.10;91.10;;;;;;5078204;28;19943;-42
2022/11/08 00:51:01;;;;;;;;;;;17.10;91.10;;;;;;5095990;28;19994;-43
2022/11/08 00:53:27;;;;;;;;;;;17.10;91.10;;;;;;5095949;28;19936;-41
2022/11/08 00:56:03;;;;;;;;;;;17.00;91.10;;;;;;5096616;28;20347;-41
2022/11/08 00:58:28;;;;;;;;;;;17.00;91.10;;;;;;5095936;28;19994;-42
2022/11/08 01:00:54;;;;;;;;;;;17.00;91.10;;;;;;5095804;28;20358;-42
2022/11/08 01:03:20;;;;;;;;;;;17.00;91.20;;;;;;5096017;28;19908;-41
2022/11/08 01:05:46;;;;;;;;;;;17.00;91.20;;;;;;5095057;28;20296;-42
2022/11/08 01:08:12;;;;;;;;;;;17.00;91.30;;;;;;5095841;28;19923;-42
2022/11/08 01:10:41;;;;;;;;;;;17.00;91.30;;;;;;5095562;28;19956;-42
2022/11/08 01:13:07;;;;;;;;;;;17.00;91.30;;;;;;5095859;28;19916;-41
2022/11/08 01:15:34;;;;;;;;;;;16.90;91.30;;;;;;5095532;28;19908;-42
2022/11/08 01:17:59;;;;;;;;;;;16.90;91.30;;;;;;5095513;28;20315;-41
2022/11/08 01:20:25;;;;;;;;;;;17.00;91.30;;;;;;5095735;28;19954;-41
2022/11/08 01:22:50;;;;;;;;;;;16.90;91.30;;;;;;5096207;28;19908;-42
2022/11/08 01:25:16;;;;;;;;;;;16.90;91.30;;;;;;5095387;28;20272;-41
2022/11/08 01:27:42;;;;;;;;;;;17.00;91.40;;;;;;5095655;28;20258;-42
2022/11/08 01:30:08;;;;;;;;;;;16.90;91.30;;;;;;5095530;28;19908;-43
2022/11/08 01:32:34;;;;;;;;;;;16.90;91.30;;;;;;5095378;28;19926;-41
2022/11/08 01:34:59;;;;;;;;;;;16.90;91.40;;;;;;5077101;28;19912;-42
2022/11/08 01:37:25;;;;;;;;;;;16.90;91.30;;;;;;5095123;28;19954;-42
2022/11/08 01:39:50;;;;;;;;;;;16.90;91.60;;;;;;5095035;28;19951;-41
2022/11/08 01:42:16;;;;;;;;;;;16.90;91.40;;;;;;5094932;28;19962;-41
2022/11/08 01:44:56;;;;;;;;;;;16.90;91.30;;;;;;5094930;28;19953;-43
2022/11/08 01:47:22;;;;;;;;;;;16.90;91.60;;;;;;5094852;28;20274;-42
2022/11/08 01:49:50;;;;;;;;;;;16.90;91.40;;;;;;5094842;28;19908;-45
2022/11/08 01:52:18;;;;;;;;;;;16.90;91.40;;;;;;5095090;28;19955;-42
2022/11/08 01:54:55;;;;;;;;;;;16.90;91.40;;;;;;5095365;28;19918;-41
2022/11/08 01:57:26;;;;;;;;;;;16.90;91.40;;;;;;5094969;28;19953;-42
2022/11/08 01:59:52;;;;;;;;;;;16.90;91.40;;;;;;5094715;28;19908;-43
2022/11/08 02:02:18;;;;;;;;;;;16.90;91.30;;;;;;5094882;28;19931;-42
2022/11/08 02:04:44;;;;;;;;;;;16.90;91.30;;;;;;5094979;28;20359;-42
2022/11/08 02:07:10;;;;;;;;;;;16.90;91.30;;;;;;5094482;28;20270;-42
2022/11/08 02:09:37;;;;;;;;;;;16.90;91.30;;;;;;5094872;28;19908;-42
2022/11/08 02:12:03;;;;;;;;;;;16.90;91.30;;;;;;5094351;28;20332;-41
2022/11/08 02:14:29;;;;;;;;;;;16.90;91.30;;;;;;5094658;28;19913;-42
2022/11/08 02:16:55;;;;;;;;;;;16.90;91.30;;;;;;5094497;28;20263;-41
2022/11/08 02:19:26;;;;;;;;;;;16.80;91.30;;;;;;5094278;28;19908;-44
2022/11/08 02:21:55;;;;;;;;;;;16.80;91.50;;;;;;5094607;28;19908;-43
2022/11/08 02:24:20;;;;;;;;;;;16.90;91.30;;;;;;5094575;28;19948;-42
2022/11/08 02:26:48;;;;;;;;;;;16.80;91.30;;;;;;5094526;28;20318;-41
2022/11/08 02:29:22;;;;;;;;;;;16.80;91.30;;;;;;5094330;28;19963;-43
2022/11/08 02:31:47;;;;;;;;;;;16.80;91.20;;;;;;5094067;28;19913;-42
2022/11/08 02:34:13;;;;;;;;;;;16.90;91.30;;;;;;5094181;28;19912;-41
2022/11/08 02:36:39;;;;;;;;;;;16.80;91.30;;;;;;5094451;28;19979;-42
2022/11/08 02:39:04;;;;;;;;;;;16.90;91.30;;;;;;5094135;28;19961;-44
2022/11/08 02:41:30;;;;;;;;;;;16.80;91.30;;;;;;5094046;28;20269;-42
2022/11/08 02:43:56;;;;;;;;;;;16.90;91.30;;;;;;5094061;28;20002;-43
2022/11/08 02:46:21;;;;;;;;;;;16.80;91.20;;;;;;5094305;28;19908;-41
2022/11/08 02:48:47;;;;;;;;;;;16.90;91.30;;;;;;5094020;28;20427;-42
2022/11/08 02:51:12;;;;;;;;;;;16.80;91.30;;;;;;5094073;28;19992;-41
2022/11/08 02:53:37;;;;;;;;;;;16.80;91.30;;;;;;5076058;28;19913;-43
2022/11/08 02:56:03;;;;;;;;;;;16.80;91.30;;;;;;5093900;28;19912;-44
2022/11/08 02:58:29;;;;;;;;;;;16.80;91.30;;;;;;5094174;28;20359;-42
2022/11/08 03:00:54;;;;;;;;;;;16.80;91.30;;;;;;5094187;28;19931;-41
2022/11/08 03:03:20;;;;;;;;;;;16.80;91.30;;;;;;5093856;28;20278;-44
2022/11/08 03:05:46;;;;;;;;;;;16.80;91.30;;;;;;5094071;28;19908;-44
2022/11/08 03:08:12;;;;;;;;;;;16.80;91.30;;;;;;5093980;28;19920;-43
2022/11/08 03:10:37;;;;;;;;;;;16.80;91.30;;;;;;5093886;28;19958;-41
2022/11/08 03:13:04;;;;;;;;;;;16.80;91.30;;;;;;5094018;28;19925;-43
2022/11/08 03:15:29;;;;;;;;;;;16.80;91.30;;;;;;5094028;28;19908;-42
2022/11/08 03:17:55;;;;;;;;;;;16.80;91.30;;;;;;5093966;28;20412;-43
2022/11/08 03:20:21;;;;;;;;;;;16.80;91.30;;;;;;5093851;28;19930;-42
2022/11/08 03:22:46;;;;;;;;;;;16.70;91.30;;;;;;5094280;28;19990;-42
2022/11/08 03:25:12;;;;;;;;;;;16.70;91.40;;;;;;5093827;28;19914;-42
2022/11/08 03:27:38;;;;;;;;;;;16.70;91.40;;;;;;5094765;28;19908;-41
2022/11/08 03:30:05;;;;;;;;;;;16.70;91.40;;;;;;5097848;28;19919;-43
2022/11/08 03:32:30;;;;;;;;;;;16.70;91.40;;;;;;5097595;28;19966;-43
2022/11/08 03:34:58;;;;;;;;;;;16.70;91.40;;;;;;5097782;28;19913;-41
2022/11/08 03:37:24;;;;;;;;;;;16.70;91.40;;;;;;5079516;28;20011;-42
2022/11/08 03:39:49;;;;;;;;;;;16.60;91.50;;;;;;5097641;28;19955;-42
2022/11/08 03:42:15;;;;;;;;;;;16.60;91.50;;;;;;5097407;28;19908;-41
2022/11/08 03:44:40;;;;;;;;;;;16.60;91.50;;;;;;5097299;28;19908;-42
2022/11/08 03:47:05;;;;;;;;;;;16.60;91.50;;;;;;5097593;28;20378;-41
2022/11/08 03:49:31;;;;;;;;;;;16.60;91.50;;;;;;5097123;28;19967;-45
2022/11/08 03:51:56;;;;;;;;;;;16.60;91.60;;;;;;5079198;28;20007;-41
2022/11/08 03:54:22;;;;;;;;;;;16.60;91.50;;;;;;5097382;28;20363;-41
2022/11/08 03:56:47;;;;;;;;;;;16.60;91.60;;;;;;5097334;28;19916;-43
2022/11/08 03:59:13;;;;;;;;;;;16.50;91.60;;;;;;5097025;28;19915;-42
2022/11/08 04:01:38;;;;;;;;;;;16.50;91.60;;;;;;5096989;28;19914;-43
2022/11/08 04:04:05;;;;;;;;;;;16.50;91.60;;;;;;5097251;28;19919;-42
2022/11/08 04:06:30;;;;;;;;;;;16.50;91.60;;;;;;5097539;28;19908;-43
2022/11/08 04:08:55;;;;;;;;;;;16.50;91.60;;;;;;5097309;28;19970;-43
2022/11/08 04:16:51;;;;;;;;;;;16.50;91.70;;;;;;5097079;28;19915;-42
2022/11/08 04:22:00;;;;;;;;;;;16.40;91.70;;;;;;5096698;28;20013;-43
2022/11/08 04:24:26;;;;;;;;;;;16.40;91.70;;;;;;5097119;28;19941;-44
2022/11/08 04:26:51;;;;;;;;;;;16.40;91.70;;;;;;5078719;28;19974;-43
2022/11/08 04:29:17;;;;;;;;;;;16.40;91.70;;;;;;5096409;28;19912;-44
2022/11/08 04:31:42;;;;;;;;;;;16.40;91.80;;;;;;5096655;28;20015;-42
2022/11/08 04:34:08;;;;;;;;;;;16.40;91.80;;;;;;5096210;28;19912;-42
2022/11/08 04:36:33;;;;;;;;;;;16.40;91.80;;;;;;5096490;28;19964;-42
2022/11/08 04:38:59;;;;;;;;;;;16.40;91.80;;;;;;5096536;28;19908;-42
2022/11/08 04:41:25;;;;;;;;;;;16.40;91.80;;;;;;5096800;28;19912;-43
2022/11/08 04:43:51;;;;;;;;;;;16.40;91.80;;;;;;5096461;28;19931;-43
2022/11/08 04:46:18;;;;;;;;;;;16.30;91.80;;;;;;5096432;28;19908;-43
2022/11/08 04:48:43;;;;;;;;;;;16.30;91.80;;;;;;5096285;28;19908;-43
2022/11/08 04:51:13;;;;;;;;;;;16.30;91.90;;;;;;5096219;28;19919;-42
2022/11/08 04:53:39;;;;;;;;;;;16.30;91.90;;;;;;5096206;28;19919;-44
2022/11/08 04:56:06;;;;;;;;;;;16.30;91.90;;;;;;5096188;28;19995;-43
2022/11/08 04:58:36;;;;;;;;;;;16.30;91.90;;;;;;5096053;28;19908;-45
2022/11/08 05:01:03;;;;;;;;;;;16.30;91.90;;;;;;5095758;28;19969;-43
2022/11/08 05:03:29;;;;;;;;;;;16.20;92.00;;;;;;5096035;28;19915;-44
2022/11/08 05:05:54;;;;;;;;;;;16.20;92.00;;;;;;5095885;28;19918;-44
2022/11/08 05:08:20;;;;;;;;;;;16.20;92.00;;;;;;5096043;28;19920;-42
2022/11/08 05:10:45;;;;;;;;;;;16.20;92.10;;;;;;5095819;28;20347;-44
2022/11/08 05:13:10;;;;;;;;;;;16.20;92.10;;;;;;5095815;28;19912;-42
2022/11/08 05:15:36;;;;;;;;;;;16.20;92.10;;;;;;5095770;28;20323;-42
2022/11/08 05:18:01;;;;;;;;;;;16.20;92.30;;;;;;5095378;28;19908;-43
2022/11/08 05:23:23;;;;;;;;;;;16.10;92.20;;;;;;5080298;28;19914;-43
2022/11/08 05:25:49;;;;;;;;;;;16.10;92.20;;;;;;5095380;28;20322;-44
2022/11/08 05:28:14;;;;;;;;;;;16.10;92.20;;;;;;5095573;28;19912;-44
2022/11/08 05:30:40;;;;;;;;;;;16.10;92.20;;;;;;5095389;28;20363;-42
2022/11/08 05:33:06;;;;;;;;;;;16.10;92.30;;;;;;5095064;28;20310;-42
2022/11/08 05:35:32;;;;;;;;;;;16.00;92.30;;;;;;5095165;28;19963;-42
2022/11/08 05:37:57;;;;;;;;;;;16.00;92.30;;;;;;5095276;28;19915;-42
2022/11/08 05:40:23;;;;;;;;;;;16.00;92.30;;;;;;5094789;28;19908;-43
2022/11/08 05:42:48;;;;;;;;;;;16.00;92.40;;;;;;5095110;28;19972;-42
2022/11/08 05:45:14;;;;;;;;;;;16.00;92.40;;;;;;5095052;28;19935;-42
2022/11/08 05:47:42;;;;;;;;;;;16.00;92.40;;;;;;5094766;28;19908;-42
2022/11/08 05:50:08;;;;;;;;;;;16.00;92.40;;;;;;5094196;28;19908;-43
2022/11/08 05:52:33;;;;;;;;;;;16.00;92.40;;;;;;5094558;28;19919;-44
2022/11/08 05:54:59;;;;;;;;;;;16.00;92.50;;;;;;5094905;28;19912;-44
2022/11/08 05:57:24;;;;;;;;;;;15.90;92.50;;;;;;5092161;28;19916;-42
2022/11/08 05:59:50;;;;;;;;;;;15.90;92.60;;;;;;5082633;28;19947;-44
2022/11/08 06:02:16;;;;;;;;;;;15.80;92.50;;;;;;5093475;28;19924;-42
2022/11/08 06:04:42;;;;;;;;;;;15.80;92.60;;;;;;5075029;28;19944;-43
2022/11/08 06:07:07;;;;;;;;;;;15.80;92.60;;;;;;5092481;28;19952;-42
2022/11/08 06:09:33;;;;;;;;;;;15.80;92.70;;;;;;5094405;28;20007;-43
2022/11/08 06:11:58;;;;;;;;;;;15.80;92.70;;;;;;5094433;28;19912;-42
2022/11/08 06:14:24;;;;;;;;;;;15.80;92.70;;;;;;5094084;28;20318;-44
2022/11/08 06:16:49;;;;;;;;;;;15.80;92.70;;;;;;5094369;28;19909;-43
2022/11/08 06:19:15;;;;;;;;;;;15.80;92.70;;;;;;5094317;28;19908;-43
2022/11/08 06:21:40;;;;;;;;;;;15.80;92.70;;;;;;5096679;28;19955;-43
2022/11/08 06:24:06;;;;;;;;;;;15.90;92.50;;;;;;5087791;28;19920;-42
2022/11/08 06:26:32;;;;;;;;;;;16.00;92.40;;;;;;5085199;28;20347;-43
2022/11/08 06:28:57;;;;;;;;;;;16.00;92.40;;;;;;5093916;28;19931;-44
2022/11/08 06:31:23;;;;;;;;;;;16.10;92.50;;;;;;5076649;28;19916;-42
2022/11/08 06:33:49;;;;;;;;;;;16.10;92.20;;;;;;5084380;28;19912;-43
2022/11/08 06:36:14;;;;;;;;;;;16.00;89.70;;;;;;5092078;28;20057;-42
2022/11/08 06:38:40;;;;;;;;;;;15.80;86.60;;;;;;5103086;28;19936;-43
2022/11/08 06:41:05;;;;;;;;;;;15.70;85.40;;;;;;5085015;28;19912;-43
2022/11/08 06:43:31;;;;;;;;;;;15.90;86.80;;;;;;5111890;28;20320;-48
2022/11/08 06:46:01;;;;;;;;;;;16.10;88.50;;;;;;5107054;28;20002;-49
2022/11/08 06:48:26;;;;;;;;;;;16.40;89.90;;;;;;5090356;28;19916;-47
2022/11/08 06:50:52;;;;;;;;;;;16.60;90.10;;;;;;5097848;28;20018;-43
2022/11/08 06:53:17;;;;;;;;;;;16.70;90.20;;;;;;5086326;28;19971;-45
2022/11/08 06:55:43;;;;;;;;;;;16.90;90.10;;;;;;5091917;28;20343;-45
2022/11/08 06:58:09;;;;;;;;;;;16.90;90.00;;;;;;5096125;28;19953;-49
2022/11/08 07:00:34;;;;;;;;;;;17.00;90.00;;;;;;5106777;28;19918;-46
2022/11/08 07:03:01;;;;;;;;;;;17.10;90.10;;;;;;5111809;28;19995;-49
2022/11/08 07:05:27;;;;;;;;;;;17.10;90.10;;;;;;5116246;28;19919;-46
2022/11/08 07:07:53;;;;;;;;;;;17.10;90.20;;;;;;5114698;28;20338;-49
2022/11/08 07:10:19;;;;;;;;;;;17.10;90.20;;;;;;5115313;28;19908;-43
2022/11/08 07:12:45;;;;;;;;;;;17.20;90.30;;;;;;5111924;28;20239;-41
2022/11/08 07:15:10;;;;;;;;;;;17.10;90.30;;;;;;5111215;28;20057;-42
2022/11/08 07:17:36;;;;;;;;;;;17.10;90.40;;;;;;5095983;28;20251;-43
2022/11/08 07:20:01;;;;;;;;;;;17.10;90.50;;;;;;5093371;28;20227;-43
2022/11/08 07:22:27;;;;;;;;;;;17.10;90.50;;;;;;5097446;28;19991;-41
2022/11/08 07:24:52;;;;;;;;;;;17.10;90.70;;;;;;5113548;28;19920;-42
2022/11/08 07:27:18;;;;;;;;;;;17.10;90.70;;;;;;5115096;28;19908;-42
2022/11/08 07:29:43;;;;;;;;;;;17.10;90.70;;;;;;5114041;28;19918;-42
2022/11/08 07:32:09;;;;;;;;;;;17.10;90.80;;;;;;5109788;28;19955;-43
2022/11/08 07:34:35;;;;;;;;;;;17.10;90.80;;;;;;5108897;28;20391;-42
2022/11/08 07:37:00;;;;;;;;;;;17.10;90.90;;;;;;5107928;28;19992;-43
2022/11/08 07:39:26;;;;;;;;;;;17.10;90.90;;;;;;5115766;28;19970;-42
2022/11/08 07:41:51;;;;;;;;;;;17.10;90.90;;;;;;5103153;28;19909;-42
2022/11/08 07:44:16;;;;;;;;;;;17.00;90.90;;;;;;5115729;28;20358;-43
2022/11/08 07:46:42;;;;;;;;;;;17.00;91.00;;;;;;5096639;28;19904;-42
2022/11/08 07:49:07;;;;;;;;;;;17.10;91.10;;;;;;5105550;28;20004;-42
2022/11/08 07:51:33;;;;;;;;;;;17.00;91.10;;;;;;5099498;28;19907;-42
2022/11/08 07:53:58;;;;;;;;;;;17.00;91.10;;;;;;5115195;28;20007;-42
2022/11/08 07:56:24;;;;;;;;;;;17.00;91.10;;;;;;5112752;28;20357;-42
2022/11/08 07:58:52;;;;;;;;;;;17.00;91.10;;;;;;5104291;28;19904;-43
2022/11/08 08:01:17;;;;;;;;;;;17.00;91.10;;;;;;5109214;28;19908;-49
2022/11/08 08:03:43;;;;;;;;;;;17.00;91.20;;;;;;5114583;28;19915;-45
2022/11/08 08:06:08;;;;;;;;;;;17.00;91.20;;;;;;5090449;28;19927;-46
2022/11/08 08:08:33;;;;;;;;;;;17.00;91.20;;;;;;5113844;28;19920;-46
2022/11/08 08:10:59;;;;;;;;;;;17.10;91.20;;;;;;5115521;28;19914;-47
2022/11/08 08:13:25;;;;;;;;;;;17.10;91.20;;;;;;5112333;28;19945;-49
2022/11/08 08:15:50;;;;;;;;;;;17.10;91.30;;;;;;5102888;28;20235;-43
2022/11/08 08:18:19;;;;;;;;;;;17.10;91.30;;;;;;5114573;28;20020;-46
2022/11/08 08:20:45;;;;;;;;;;;17.10;91.30;;;;;;5111005;28;19912;-44
2022/11/08 08:23:10;;;;;;;;;;;17.10;91.30;;;;;;5101364;28;19916;-43
2022/11/08 08:25:36;;;;;;;;;;;17.10;91.40;;;;;;5111687;28;19961;-43
2022/11/08 08:28:01;;;;;;;;;;;17.10;91.40;;;;;;5104015;28;19936;-46
2022/11/08 08:30:28;;;;;;;;;;;17.10;91.40;;;;;;5117241;28;19911;-49
2022/11/08 08:33:00;;;;;;;;;;;17.10;91.50;;;;;;5112316;28;19914;-44
2022/11/08 08:35:25;;;;;;;;;;;17.10;91.50;;;;;;5113553;28;20297;-46
2022/11/08 08:37:51;;;;;;;;;;;17.10;91.50;;;;;;5111881;28;19915;-44
2022/11/08 08:40:16;;;;;;;;;;;17.10;91.50;;;;;;5107752;28;19927;-43
2022/11/08 08:42:42;;;;;;;;;;;17.10;91.50;;;;;;5112761;28;19948;-46
2022/11/08 08:45:08;;;;;;;;;;;17.10;91.50;;;;;;5112193;28;21739;-47
2022/11/08 08:47:34;;;;;;;;;;;17.10;91.50;;;;;;5094971;28;20055;-43
2022/11/08 08:49:59;;;;;;;;;;;17.10;91.70;;;;;;5089368;28;20343;-42
2022/11/08 08:52:25;;;;;;;;;;;17.20;91.50;;;;;;5111683;28;19915;-44
2022/11/08 08:54:50;;;;;;;;;;;17.20;91.50;;;;;;5116697;28;19908;-48
2022/11/08 08:57:16;;;;;;;;;;;17.20;91.50;;;;;;5106094;28;20249;-44
2022/11/08 08:59:41;;;;;;;;;;;17.20;91.50;;;;;;5111966;28;19966;-44
2022/11/08 09:02:07;;;;;;;;;;;17.20;91.50;;;;;;5109409;28;19907;-44
2022/11/08 09:04:34;;;;;;;;;;;17.20;91.50;;;;;;5109411;28;19942;-46
2022/11/08 09:07:00;;;;;;;;;;;17.20;91.50;;;;;;5101242;28;19965;-49
2022/11/08 09:09:25;;;;;;;;;;;17.20;91.50;;;;;;5113656;28;19921;-42
2022/11/08 09:11:51;;;;;;;;;;;17.20;91.50;;;;;;5099305;28;19916;-44
2022/11/08 09:14:16;;;;;;;;;;;17.20;91.60;;;;;;5078664;28;19922;-42
2022/11/08 09:16:42;;;;;;;;;;;17.20;91.60;;;;;;5111444;28;20385;-42
2022/11/08 09:19:07;;;;;;;;;;;17.20;91.60;;;;;;5115800;28;19954;-42
2022/11/08 09:21:32;;;;;;;;;;;17.20;91.60;;;;;;5103215;28;19918;-43
2022/11/08 09:23:58;;;;;;;;;;;17.20;91.60;;;;;;5109175;28;20396;-42
2022/11/08 09:26:23;;;;;;;;;;;17.20;91.70;;;;;;5114880;28;19912;-41
2022/11/08 09:28:49;;;;;;;;;;;17.20;91.70;;;;;;5113213;28;20406;-42
2022/11/08 09:31:14;;;;;;;;;;;17.20;91.70;;;;;;5107899;28;19916;-43
2022/11/08 09:33:40;;;;;;;;;;;17.10;91.80;;;;;;5107072;28;19966;-43
2022/11/08 09:36:06;;;;;;;;;;;17.10;91.80;;;;;;5106797;28;20385;-44
2022/11/08 09:38:32;;;;;;;;;;;17.10;91.80;;;;;;5115351;28;19908;-42
2022/11/08 09:41:16;;;;;;;;;;;17.10;91.80;;;;;;5113161;28;19919;-42
2022/11/08 09:43:51;;;;;;;;;;;17.10;91.90;;;;;;5115259;28;20363;-47
2022/11/08 09:46:29;;;;;;;;;;;17.10;91.90;;;;;;5110949;28;20299;-46
2022/11/08 09:48:58;;;;;;;;;;;17.10;91.90;;;;;;5115258;28;19985;-42
2022/11/08 09:51:23;;;;;;;;;;;17.10;91.90;;;;;;5094959;28;19972;-42
2022/11/08 09:53:56;;;;;;;;;;;17.10;91.90;;;;;;5109496;28;20345;-44
2022/11/08 09:56:27;;;;;;;;;;;17.10;91.90;;;;;;5110225;28;19984;-47
2022/11/08 09:59:11;;;;;;;;;;;17.10;91.90;;;;;;5078867;28;20304;-42
2022/11/08 10:01:37;;;;;;;;;;;17.10;91.80;;;;;;5104504;28;20285;-43
2022/11/08 10:04:10;;;;;;;;;;;17.10;91.90;;;;;;5095926;28;19912;-43
2022/11/08 10:06:54;;;;;;;;;;;17.10;91.90;;;;;;5090652;28;20285;-42
2022/11/08 10:09:25;;;;;;;;;;;17.10;91.90;;;;;;5096527;28;20026;-42
2022/11/08 10:11:50;;;;;;;;;;;17.20;91.90;;;;;;5094723;28;20274;-42
2022/11/08 10:14:24;;;;;;;;;;;17.20;91.80;;;;;;5089737;28;21481;-42
2022/11/08 10:16:55;;;;;;;;;;;17.20;91.80;;;;;;5111367;28;19918;-42
2022/11/08 10:19:46;;;;;;;;;;;17.30;91.70;;;;;;5106103;28;19912;-41
2022/11/08 10:22:24;;;;;;;;;;;17.40;91.60;;;;;;5075146;28;19915;-43
2022/11/08 10:25:10;;;;;;;;;;;17.60;91.70;;;;;;5083012;28;20265;-43
2022/11/08 10:27:37;;;;;;;;;;;17.80;91.20;;;;;;5101524;28;20038;-41
2022/11/08 10:30:04;;;;;;;;;;;18.10;91.10;;;;;;5108429;28;19913;-42
2022/11/08 10:32:31;;;;;;;;;;;18.30;90.80;;;;;;5106525;28;19915;-41
2022/11/08 10:34:57;;;;;;;;;;;18.50;90.50;;;;;;5111246;28;19918;-43
2022/11/08 10:37:23;;;;;;;;;;;18.70;90.30;;;;;;5114200;28;19990;-46
2022/11/08 10:40:11;;;;;;;;;;;18.90;90.00;;;;;;5112305;28;19908;-48
2022/11/08 10:42:42;;;;;;;;;;;19.10;89.60;;;;;;5065445;28;19909;-45
2022/11/08 10:45:08;;;;;;;;;;;19.40;89.00;;;;;;5079053;28;20282;-48
2022/11/08 10:47:35;;;;;;;;;;;19.60;88.20;;;;;;5114050;28;19912;-42
2022/11/08 10:50:04;;;;;;;;;;;19.90;87.50;;;;;;5081111;28;19912;-44
2022/11/08 10:52:38;;;;;;;;;;;20.10;86.90;;;;;;5105474;28;19960;-44
2022/11/08 10:55:07;;;;;;;;;;;20.60;86.30;;;;;;5109974;28;19916;-48
2022/11/08 10:57:36;;;;;;;;;;;21.00;85.00;;;;;;5106408;28;19938;-44
2022/11/08 11:00:15;;;;;;;;;;;21.40;83.90;;;;;;5109698;28;19913;-44
2022/11/08 11:02:41;;;;;;;;;;;21.70;83.00;;;;;;5109406;28;20381;-47
2022/11/08 11:05:20;;;;;;;;;;;22.10;82.10;;;;;;5087934;28;20354;-44
2022/11/08 11:07:46;;;;;;;;;;;22.30;81.70;;;;;;5095766;28;20393;-44
2022/11/08 11:10:16;;;;;;;;;;;22.30;80.90;;;;;;5104221;28;19913;-44
2022/11/08 11:12:42;;;;;;;;;;;22.10;80.90;;;;;;5102062;28;20493;-45
2022/11/08 11:15:13;;;;;;;;;;;21.90;81.20;;;;;;5105706;28;19959;-47
2022/11/08 11:17:39;;;;;;;;;;;21.60;81.90;;;;;;5111749;28;19980;-46
2022/11/08 11:20:04;;;;;;;;;;;21.20;82.80;;;;;;5092462;28;19955;-45
2022/11/08 11:22:32;;;;;;;;;;;20.90;83.60;;;;;;5081565;28;19912;-45
2022/11/08 11:25:04;;;;;;;;;;;20.60;84.30;;;;;;5093388;28;19951;-44
2022/11/08 11:27:30;;;;;;;;;;;20.40;84.90;;;;;;5111290;28;19911;-45
2022/11/08 11:30:29;;;;;;;;;;;20.20;85.50;;;;;;5101290;28;20344;-44
2022/11/08 11:32:56;;;;;;;;;;;20.00;86.30;;;;;;5063912;28;20276;-45
2022/11/08 11:35:23;;;;;;;;;;;19.70;87.10;;;;;;5106087;28;19918;-46
2022/11/08 11:37:49;;;;;;;;;;;19.50;87.50;;;;;;5105573;28;19999;-45
2022/11/08 11:40:33;;;;;;;;;;;19.40;87.90;;;;;;5110278;28;20006;-44
2022/11/08 11:43:11;;;;;;;;;;;19.30;88.30;;;;;;5110497;28;19919;-44
2022/11/08 11:45:49;;;;;;;;;;;19.30;88.40;;;;;;5112179;28;19918;-43
2022/11/08 11:48:16;;;;;;;;;;;19.30;88.50;;;;;;5107551;28;19916;-49
2022/11/08 11:50:46;;;;;;;;;;;19.30;88.40;;;;;;5103585;28;20002;-44
2022/11/08 11:53:15;;;;;;;;;;;19.30;88.40;;;;;;5114954;28;19922;-43
2022/11/08 11:55:45;;;;;;;;;;;19.30;88.60;;;;;;5099264;28;19995;-44
2022/11/08 11:58:21;;;;;;;;;;;19.20;88.70;;;;;;5106632;28;19918;-46
2022/11/08 12:00:52;;;;;;;;;;;19.10;88.80;;;;;;5106661;28;19912;-47
2022/11/08 12:03:27;;;;;;;;;;;19.10;89.00;;;;;;5116403;28;19912;-45
2022/11/08 12:06:08;;;;;;;;;;;19.00;88.30;;;;;;5117520;28;20018;-44
2022/11/08 12:08:46;;;;;;;;;;;19.00;89.10;;;;;;5117255;28;19927;-45
2022/11/08 12:11:26;;;;;;;;;;;18.90;89.50;;;;;;5116880;28;20265;-44
2022/11/08 12:13:52;;;;;;;;;;;18.80;89.70;;;;;;5117047;28;20362;-45
2022/11/08 12:16:40;;;;;;;;;;;18.80;89.90;;;;;;5116592;28;19907;-43
2022/11/08 12:19:12;;;;;;;;;;;18.80;90.00;;;;;;5107697;28;20359;-42
2022/11/08 12:21:43;;;;;;;;;;;18.70;90.00;;;;;;5089687;28;19923;-42
2022/11/08 12:24:27;;;;;;;;;;;18.70;90.10;;;;;;5093359;28;19908;-41
2022/11/08 12:27:11;;;;;;;;;;;18.60;90.10;;;;;;5101239;28;19924;-42
2022/11/08 12:29:39;;;;;;;;;;;18.60;90.30;;;;;;5113315;28;19908;-45
2022/11/08 12:32:31;;;;;;;;;;;18.50;90.30;;;;;;5110101;28;19919;-42
2022/11/08 12:35:03;;;;;;;;;;;18.50;90.40;;;;;;5117186;28;19969;-47
2022/11/08 12:37:31;;;;;;;;;;;18.40;90.50;;;;;;5110859;28;20016;-44
2022/11/08 12:40:04;;;;;;;;;;;18.40;90.60;;;;;;5114564;28;20006;-45
2022/11/08 12:42:33;;;;;;;;;;;18.30;90.70;;;;;;5114662;28;19907;-44
2022/11/08 12:45:17;;;;;;;;;;;18.30;90.70;;;;;;5105625;28;19916;-46
2022/11/08 12:47:43;;;;;;;;;;;18.30;90.70;;;;;;5075592;28;19905;-42
2022/11/08 12:50:29;;;;;;;;;;;18.30;90.70;;;;;;5111972;28;20518;-42
2022/11/08 12:53:13;;;;;;;;;;;18.20;90.80;;;;;;5112908;28;20364;-42
2022/11/08 12:55:40;;;;;;;;;;;18.20;90.90;;;;;;5111518;28;19912;-42
2022/11/08 12:58:32;;;;;;;;;;;18.20;90.90;;;;;;5112150;28;19903;-41
2022/11/08 13:01:00;;;;;;;;;;;18.20;90.90;;;;;;5088789;28;19999;-41
2022/11/08 13:03:32;;;;;;;;;;;18.10;91.00;;;;;;5091076;28;19919;-42
2022/11/08 13:06:04;;;;;;;;;;;18.10;91.10;;;;;;5112326;28;19995;-41
2022/11/08 13:08:32;;;;;;;;;;;18.10;91.20;;;;;;5113743;28;19986;-41
2022/11/08 13:11:01;;;;;;;;;;;18.00;91.20;;;;;;5115917;28;20294;-40
2022/11/08 13:13:29;;;;;;;;;;;18.00;91.30;;;;;;5109890;28;20433;-40
2022/11/08 13:16:10;;;;;;;;;;;18.00;91.30;;;;;;5116048;28;19915;-40
2022/11/08 13:18:41;;;;;;;;;;;18.00;91.40;;;;;;5107273;28;19908;-41
2022/11/08 13:21:39;;;;;;;;;;;17.90;91.40;;;;;;5103694;28;19914;-41
2022/11/08 13:24:05;;;;;;;;;;;17.90;91.40;;;;;;5053761;28;19952;-41
2022/11/08 13:26:41;;;;;;;;;;;18.00;91.40;;;;;;5099426;28;19959;-41
2022/11/08 13:29:26;;;;;;;;;;;18.00;91.30;;;;;;5115810;28;19982;-40
2022/11/08 13:31:54;;;;;;;;;;;18.10;91.30;;;;;;5109653;28;19994;-42
2022/11/08 13:34:39;;;;;;;;;;;18.10;91.20;;;;;;5113141;28;19972;-43
2022/11/08 13:37:07;;;;;;;;;;;18.30;91.10;;;;;;5115604;28;19915;-42
2022/11/08 13:39:41;;;;;;;;;;;18.40;90.90;;;;;;5106067;28;19908;-44
2022/11/08 13:42:16;;;;;;;;;;;18.60;90.80;;;;;;5110228;28;20314;-41
2022/11/08 13:44:53;;;;;;;;;;;18.70;90.60;;;;;;5115644;28;19907;-41
2022/11/08 13:47:46;;;;;;;;;;;18.90;90.40;;;;;;5107547;28;19977;-46
2022/11/08 13:50:32;;;;;;;;;;;19.10;90.30;;;;;;5098821;28;19936;-44
2022/11/08 13:53:07;;;;;;;;;;;19.30;90.10;;;;;;5091695;28;19912;-47
2022/11/08 13:55:41;;;;;;;;;;;19.40;89.70;;;;;;5114014;28;19915;-43
2022/11/08 13:58:25;;;;;;;;;;;19.60;89.30;;;;;;5112599;28;19907;-42
2022/11/08 14:00:50;;;;;;;;;;;19.80;88.70;;;;;;5106607;28;19946;-44
2022/11/08 14:03:45;;;;;;;;;;;20.00;88.10;;;;;;5099821;28;20368;-44
2022/11/08 14:06:10;;;;;;;;;;;20.30;87.70;;;;;;5107261;28;20360;-43
2022/11/08 14:08:45;;;;;;;;;;;20.50;86.80;;;;;;5093434;28;20002;-43
2022/11/08 14:11:23;;;;;;;;;;;20.80;86.20;;;;;;5077442;28;19908;-44
2022/11/08 14:13:54;;;;;;;;;;;21.20;85.50;;;;;;5087624;28;19908;-47
2022/11/08 14:16:22;;;;;;;;;;;21.50;84.70;;;;;;5093161;28;19915;-45
2022/11/08 14:18:47;;;;;;;;;;;21.90;83.70;;;;;;5103800;28;19930;-44
2022/11/08 14:21:17;;;;;;;;;;;22.10;83.20;;;;;;5111532;28;20346;-45
2022/11/08 14:23:44;;;;;;;;;;;22.20;82.70;;;;;;5109296;28;20369;-44
2022/11/08 14:26:12;;;;;;;;;;;22.10;82.70;;;;;;5109855;28;19951;-43
2022/11/08 14:28:39;;;;;;;;;;;22.00;82.90;;;;;;5110437;28;19998;-44
2022/11/08 14:31:25;;;;;;;;;;;21.80;83.30;;;;;;5091693;28;19912;-43
2022/11/08 14:33:50;;;;;;;;;;;21.50;83.90;;;;;;5113917;28;19963;-43
2022/11/08 14:36:17;;;;;;;;;;;21.20;84.40;;;;;;5107558;28;19983;-42
2022/11/08 14:38:47;;;;;;;;;;;21.00;85.10;;;;;;5114454;28;19904;-49
2022/11/08 14:41:20;;;;;;;;;;;20.70;85.70;;;;;;5103967;28;19939;-45
2022/11/08 14:43:46;;;;;;;;;;;20.50;86.30;;;;;;5108269;28;19914;-44